• Join FlightAware (Why Join?)
  • Login
  • US Flag 
12:54AM EDT


 

Airport Tracker/Info


-or-


 

Live Flight TrackerFlight Track Log ✈ UAL3272 ✈ 08-Apr-2013 ✈ CYYZ - KCLE

Flight Track Log - Related Links

Times and Time Zones

All times are in EDT time to prevent confusion due to time zone crossing. See the UAL3272 flight status page for this flight to view local times or setup timezone preferences in your user account.

Time Position Orientation Groundspeed Altitude Reporting Facility
EDT Latitude Longitude Course Direction KTS MPH feet Rate Location/Type
06:51AM 43.6667 -79.5667 36° Northeast 170 196 1,500  Level Toronto Center
06:52AM 43.7167 -79.5167 36° Northeast 200 230 4,300 2,580 Climbing Toronto Center
06:53AM 43.7500 -79.4500 55° Northeast 260 299 6,700 1,260 Climbing Toronto Center
06:54AM 43.7833 -79.3500 65° Northeast 280 322 6,900 1,320 Climbing Toronto Center
06:55AM 43.7333 -79.2833 136° Southeast 280 322 9,400 2,460 Climbing Toronto Center
06:56AM 43.6667 -79.3333 208° Southwest 290 334 11,900 2,220 Climbing Toronto Center
06:57AM 43.5833 -79.3833 203° Southwest 320 368 13,900 1,500 Climbing Toronto Center
06:58AM 43.4833 -79.4333 200° South 360 414 14,900 540 Climbing Toronto Center
06:59AM 43.3833 -79.5000 206° Southwest 380 437 15,000  Climbing Toronto Center
07:00AM 43.2833 -79.5333 194° South 380 437 15,000 480 Level Toronto Center
07:01AM 43.1833 -79.6167 211° Southwest 400 460 16,000 1,380 Climbing Toronto Center
07:02AM 43.0833 -79.6500 194° South 400 460 17,800 960 Climbing Toronto Center
07:03AM 42.9667 -79.7167 203° Southwest 400 460 18,000 60 Climbing Toronto Center
07:04AM 42.8833 -79.8000 216° Southwest 410 472 18,000  Level Toronto Center
07:04AM 42.8475 -79.8525 227° Southwest 408 470 18,000  Level Cleveland Center
07:05AM 42.7586 -79.9442 217° Southwest 400 460 18,000  Level Cleveland Center
07:06AM 42.6550 -80.0439 215° Southwest 413 475 18,000  Level Cleveland Center
07:07AM 42.5678 -80.1350 218° Southwest 407 468 18,000  Level Cleveland Center
07:08AM 42.4783 -80.2228 216° Southwest 407 468 18,000  Level Cleveland Center
07:09AM 42.4014 -80.3047 218° Southwest 401 461 18,000  Level Cleveland Center
07:10AM 42.3142 -80.3894 216° Southwest 401 461 18,000  Level Cleveland Center
07:11AM 42.2267 -80.4739 216° Southwest 401 461 18,000  Level Cleveland Center
07:12AM 42.1414 -80.5553 215° Southwest 396 456 18,000  Level Cleveland Center
07:13AM 42.0581 -80.6392 217° Southwest 384 442 18,000 -420 Level Cleveland Center
07:14AM 41.9725 -80.7228 216° Southwest 384 442 17,200 -900 Descending Cleveland Center
07:15AM 41.8806 -80.8119 216° Southwest 384 442 16,200 -1,080 Descending Cleveland Center
07:16AM 41.7992 -80.8922 216° Southwest 384 442 15,100 -1,200 Descending Cleveland Center
07:16AM 41.7761 -80.9172 219° Southwest 365 420 14,700 -1,380 Descending Cleveland Center
07:17AM 41.7322 -80.9589 215° Southwest 354 407 13,900 -1,200 Descending Cleveland Center
07:18AM 41.6422 -81.0444 215° Southwest 339 390 12,700 -1,020 Descending Cleveland Center
07:18AM 41.6422 -81.0444 215° Southwest 352 405 12,800 -1,860 Climbing Cleveland Center
07:19AM 41.5669 -81.1161 215° Southwest 346 398 10,900 -1,440 Descending Cleveland Center
07:20AM 41.5392 -81.2211 251° West 312 359 10,000 -900 Descending Cleveland Center
07:21AM 41.5303 -81.3181 263° West 278 320 9,100 -1,080 Descending Cleveland Center
07:21AM 41.5281 -81.3431 263° West 241 277 8,700 -1,920 Descending Cleveland Center
07:22AM 41.5214 -81.4094 262° West 258 297 7,200 -2,040 Descending Cleveland Center
07:22AM 41.5192 -81.4317 262° West 244 281 6,700 -1,620 Descending Cleveland Center
07:23AM 41.5122 -81.4983 262° West 253 291 5,600 -1,380 Descending Cleveland Center
07:23AM 41.5100 -81.5314 265° West 242 278 5,200 -1,200 Descending Cleveland Center
07:24AM 41.5053 -81.5869 264° West 248 285 4,400 -1,200 Descending Cleveland Center
07:24AM 41.5008 -81.6256 261° West 244 281 4,000 -900 Descending Cleveland Center
07:25AM 41.4961 -81.6725 262° West 241 277 3,500 -720 Descending Cleveland Center
07:25AM 41.4939 -81.7003 264° West 198 228 3,300 -600 Descending Cleveland Center
07:26AM 41.4831 -81.7389 249° West 202 232 2,900 -720 Descending Cleveland Center
07:26AM 41.4725 -81.7553 229° Southwest 156 180 2,600 -780 Descending Cleveland Center
07:27AM 41.4492 -81.7881 226° Southwest 125 144 1,900 -780 Descending Cleveland Center
07:28AM 41.4236 -81.8264 228° Southwest 136 157 1,200 -720 Descending Cleveland Center
07:30AM 41.4000 -81.8500 252° West  Level FlightAware Approximate
07:37AM 41.4094 -81.8547 252° West  Level Estimated